sensor_id;sensor_type;location;lat;lon;timestamp;P1;durP1;ratioP1;P2;durP2;ratioP2
42420;SDS011;28063;48.140;11.588;2023-12-28T00:01:40;1.75;;;0.80;;
42420;SDS011;28063;48.140;11.588;2023-12-28T00:04:06;0.82;;;0.80;;
42420;SDS011;28063;48.140;11.588;2023-12-28T00:06:32;1.95;;;1.15;;
42420;SDS011;28063;48.140;11.588;2023-12-28T00:08:58;2.53;;;1.10;;
42420;SDS011;28063;48.140;11.588;2023-12-28T00:11:25;2.53;;;1.40;;
42420;SDS011;28063;48.140;11.588;2023-12-28T00:13:51;2.03;;;1.20;;
42420;SDS011;28063;48.140;11.588;2023-12-28T00:16:18;1.73;;;1.08;;
42420;SDS011;28063;48.140;11.588;2023-12-28T00:18:44;1.42;;;0.77;;
42420;SDS011;28063;48.140;11.588;2023-12-28T00:21:12;1.80;;;1.17;;
42420;SDS011;28063;48.140;11.588;2023-12-28T00:23:39;1.60;;;0.80;;
42420;SDS011;28063;48.140;11.588;2023-12-28T00:26:05;1.35;;;0.98;;
42420;SDS011;28063;48.140;11.588;2023-12-28T00:28:31;1.38;;;0.82;;
42420;SDS011;28063;48.140;11.588;2023-12-28T00:30:58;2.25;;;0.63;;
42420;SDS011;28063;48.140;11.588;2023-12-28T00:33:24;1.23;;;0.77;;
42420;SDS011;28063;48.140;11.588;2023-12-28T00:35:50;0.65;;;0.65;;
42420;SDS011;28063;48.140;11.588;2023-12-28T00:38:16;1.13;;;0.80;;
42420;SDS011;28063;48.140;11.588;2023-12-28T00:40:42;0.80;;;0.73;;
42420;SDS011;28063;48.140;11.588;2023-12-28T00:43:08;1.02;;;0.70;;
42420;SDS011;28063;48.140;11.588;2023-12-28T00:45:37;0.82;;;0.82;;
42420;SDS011;28063;48.140;11.588;2023-12-28T00:48:04;1.45;;;1.35;;
42420;SDS011;28063;48.140;11.588;2023-12-28T00:50:30;0.85;;;0.52;;
42420;SDS011;28063;48.140;11.588;2023-12-28T00:52:57;1.15;;;0.80;;
42420;SDS011;28063;48.140;11.588;2023-12-28T00:55:23;1.60;;;0.80;;
42420;SDS011;28063;48.140;11.588;2023-12-28T00:57:50;2.05;;;0.98;;
42420;SDS011;28063;48.140;11.588;2023-12-28T01:00:16;1.00;;;0.80;;
42420;SDS011;28063;48.140;11.588;2023-12-28T01:02:42;0.63;;;0.60;;
42420;SDS011;28063;48.140;11.588;2023-12-28T01:05:11;0.93;;;0.68;;
42420;SDS011;28063;48.140;11.588;2023-12-28T01:07:45;0.95;;;0.70;;
42420;SDS011;28063;48.140;11.588;2023-12-28T01:10:11;0.63;;;0.60;;
42420;SDS011;28063;48.140;11.588;2023-12-28T01:12:37;1.70;;;0.98;;
42420;SDS011;28063;48.140;11.588;2023-12-28T01:15:04;2.05;;;0.77;;
42420;SDS011;28063;48.140;11.588;2023-12-28T01:17:30;0.73;;;0.73;;
42420;SDS011;28063;48.140;11.588;2023-12-28T01:19:56;0.50;;;0.50;;
42420;SDS011;28063;48.140;11.588;2023-12-28T01:22:22;1.23;;;0.77;;
42420;SDS011;28063;48.140;11.588;2023-12-28T01:24:48;1.70;;;1.02;;
42420;SDS011;28063;48.140;11.588;2023-12-28T01:27:15;0.73;;;0.60;;
42420;SDS011;28063;48.140;11.588;2023-12-28T01:29:41;0.93;;;0.77;;
42420;SDS011;28063;48.140;11.588;2023-12-28T01:32:10;0.70;;;0.60;;
42420;SDS011;28063;48.140;11.588;2023-12-28T01:34:36;1.58;;;0.80;;
42420;SDS011;28063;48.140;11.588;2023-12-28T01:37:03;0.73;;;0.73;;
42420;SDS011;28063;48.140;11.588;2023-12-28T01:39:29;0.75;;;0.75;;
42420;SDS011;28063;48.140;11.588;2023-12-28T01:41:58;1.13;;;0.50;;
42420;SDS011;28063;48.140;11.588;2023-12-28T01:44:24;0.70;;;0.43;;
42420;SDS011;28063;48.140;11.588;2023-12-28T01:46:50;0.47;;;0.40;;
42420;SDS011;28063;48.140;11.588;2023-12-28T01:49:19;0.70;;;0.52;;
42420;SDS011;28063;48.140;11.588;2023-12-28T01:51:47;0.80;;;0.73;;
42420;SDS011;28063;48.140;11.588;2023-12-28T01:54:15;0.80;;;0.55;;
42420;SDS011;28063;48.140;11.588;2023-12-28T01:56:51;1.50;;;0.80;;
42420;SDS011;28063;48.140;11.588;2023-12-28T01:59:17;0.63;;;0.50;;
42420;SDS011;28063;48.140;11.588;2023-12-28T02:01:43;0.57;;;0.40;;
42420;SDS011;28063;48.140;11.588;2023-12-28T02:04:12;0.80;;;0.50;;
42420;SDS011;28063;48.140;11.588;2023-12-28T02:06:39;1.27;;;0.75;;
42420;SDS011;28063;48.140;11.588;2023-12-28T02:09:05;0.95;;;0.80;;
42420;SDS011;28063;48.140;11.588;2023-12-28T02:11:31;1.85;;;0.73;;
42420;SDS011;28063;48.140;11.588;2023-12-28T02:13:57;1.25;;;1.10;;
42420;SDS011;28063;48.140;11.588;2023-12-28T02:16:33;2.10;;;1.00;;
42420;SDS011;28063;48.140;11.588;2023-12-28T02:19:03;1.05;;;0.60;;
42420;SDS011;28063;48.140;11.588;2023-12-28T02:21:36;0.80;;;0.57;;
42420;SDS011;28063;48.140;11.588;2023-12-28T02:24:03;1.13;;;0.98;;
42420;SDS011;28063;48.140;11.588;2023-12-28T02:26:29;1.77;;;1.05;;
42420;SDS011;28063;48.140;11.588;2023-12-28T02:28:55;1.30;;;0.80;;
42420;SDS011;28063;48.140;11.588;2023-12-28T02:31:22;1.30;;;0.70;;
42420;SDS011;28063;48.140;11.588;2023-12-28T02:33:53;0.60;;;0.50;;
42420;SDS011;28063;48.140;11.588;2023-12-28T02:36:21;0.73;;;0.55;;
42420;SDS011;28063;48.140;11.588;2023-12-28T02:38:48;0.63;;;0.52;;
42420;SDS011;28063;48.140;11.588;2023-12-28T02:41:15;0.98;;;0.68;;
42420;SDS011;28063;48.140;11.588;2023-12-28T02:43:42;0.73;;;0.55;;
42420;SDS011;28063;48.140;11.588;2023-12-28T02:46:08;0.30;;;0.30;;
42420;SDS011;28063;48.140;11.588;2023-12-28T02:48:35;0.63;;;0.40;;
42420;SDS011;28063;48.140;11.588;2023-12-28T02:51:01;0.32;;;0.32;;
42420;SDS011;28063;48.140;11.588;2023-12-28T02:53:27;0.55;;;0.32;;
42420;SDS011;28063;48.140;11.588;2023-12-28T02:55:53;1.50;;;0.50;;
42420;SDS011;28063;48.140;11.588;2023-12-28T02:58:19;1.92;;;0.80;;
42420;SDS011;28063;48.140;11.588;2023-12-28T03:00:46;1.00;;;0.70;;
42420;SDS011;28063;48.140;11.588;2023-12-28T03:03:13;1.50;;;0.85;;
42420;SDS011;28063;48.140;11.588;2023-12-28T03:05:39;1.48;;;0.80;;
42420;SDS011;28063;48.140;11.588;2023-12-28T03:08:06;0.73;;;0.73;;
42420;SDS011;28063;48.140;11.588;2023-12-28T03:10:32;1.27;;;0.82;;
42420;SDS011;28063;48.140;11.588;2023-12-28T03:12:58;0.60;;;0.60;;
42420;SDS011;28063;48.140;11.588;2023-12-28T03:15:24;0.68;;;0.68;;
42420;SDS011;28063;48.140;11.588;2023-12-28T03:17:50;0.70;;;0.70;;
42420;SDS011;28063;48.140;11.588;2023-12-28T03:20:16;1.48;;;0.80;;
42420;SDS011;28063;48.140;11.588;2023-12-28T03:22:42;1.02;;;0.60;;
42420;SDS011;28063;48.140;11.588;2023-12-28T03:25:09;0.55;;;0.52;;
42420;SDS011;28063;48.140;11.588;2023-12-28T03:27:35;0.90;;;0.70;;
42420;SDS011;28063;48.140;11.588;2023-12-28T03:30:01;1.33;;;0.60;;
42420;SDS011;28063;48.140;11.588;2023-12-28T03:32:27;0.82;;;0.73;;
42420;SDS011;28063;48.140;11.588;2023-12-28T03:34:53;0.50;;;0.50;;
42420;SDS011;28063;48.140;11.588;2023-12-28T03:37:19;1.33;;;0.90;;
42420;SDS011;28063;48.140;11.588;2023-12-28T03:39:45;1.17;;;0.70;;
42420;SDS011;28063;48.140;11.588;2023-12-28T03:42:12;1.83;;;0.73;;
42420;SDS011;28063;48.140;11.588;2023-12-28T03:44:38;0.65;;;0.55;;
42420;SDS011;28063;48.140;11.588;2023-12-28T03:47:04;0.75;;;0.75;;
42420;SDS011;28063;48.140;11.588;2023-12-28T03:49:30;1.50;;;0.90;;
42420;SDS011;28063;48.140;11.588;2023-12-28T03:51:56;0.93;;;0.90;;
42420;SDS011;28063;48.140;11.588;2023-12-28T03:54:22;0.98;;;0.70;;
42420;SDS011;28063;48.140;11.588;2023-12-28T03:56:51;1.30;;;0.80;;
42420;SDS011;28063;48.140;11.588;2023-12-28T03:59:19;0.95;;;0.52;;
42420;SDS011;28063;48.140;11.588;2023-12-28T04:01:45;0.70;;;0.70;;
42420;SDS011;28063;48.140;11.588;2023-12-28T04:04:11;0.40;;;0.40;;
42420;SDS011;28063;48.140;11.588;2023-12-28T04:06:37;0.50;;;0.50;;
42420;SDS011;28063;48.140;11.588;2023-12-28T04:09:04;1.25;;;0.60;;
42420;SDS011;28063;48.140;11.588;2023-12-28T04:11:30;0.90;;;0.50;;
42420;SDS011;28063;48.140;11.588;2023-12-28T04:13:56;0.30;;;0.30;;
42420;SDS011;28063;48.140;11.588;2023-12-28T04:16:22;0.73;;;0.50;;
42420;SDS011;28063;48.140;11.588;2023-12-28T04:18:48;0.60;;;0.50;;
42420;SDS011;28063;48.140;11.588;2023-12-28T04:21:14;1.13;;;0.30;;
42420;SDS011;28063;48.140;11.588;2023-12-28T04:23:41;0.73;;;0.52;;
42420;SDS011;28063;48.140;11.588;2023-12-28T04:26:07;0.40;;;0.40;;
42420;SDS011;28063;48.140;11.588;2023-12-28T04:28:33;0.30;;;0.30;;
42420;SDS011;28063;48.140;11.588;2023-12-28T04:31:03;0.30;;;0.30;;
42420;SDS011;28063;48.140;11.588;2023-12-28T04:33:30;1.80;;;0.73;;
42420;SDS011;28063;48.140;11.588;2023-12-28T04:35:56;0.60;;;0.40;;
42420;SDS011;28063;48.140;11.588;2023-12-28T04:38:22;0.43;;;0.43;;
42420;SDS011;28063;48.140;11.588;2023-12-28T04:40:48;1.10;;;0.30;;
42420;SDS011;28063;48.140;11.588;2023-12-28T04:43:14;0.28;;;0.20;;
42420;SDS011;28063;48.140;11.588;2023-12-28T04:45:41;0.45;;;0.45;;
42420;SDS011;28063;48.140;11.588;2023-12-28T04:48:07;0.45;;;0.30;;
42420;SDS011;28063;48.140;11.588;2023-12-28T04:50:33;0.47;;;0.45;;
42420;SDS011;28063;48.140;11.588;2023-12-28T04:52:59;0.32;;;0.32;;
42420;SDS011;28063;48.140;11.588;2023-12-28T04:55:25;0.20;;;0.20;;
42420;SDS011;28063;48.140;11.588;2023-12-28T04:57:51;0.40;;;0.30;;
42420;SDS011;28063;48.140;11.588;2023-12-28T05:00:17;0.40;;;0.40;;
42420;SDS011;28063;48.140;11.588;2023-12-28T05:02:43;0.32;;;0.30;;
42420;SDS011;28063;48.140;11.588;2023-12-28T05:05:11;0.40;;;0.38;;
42420;SDS011;28063;48.140;11.588;2023-12-28T05:07:37;0.73;;;0.50;;
42420;SDS011;28063;48.140;11.588;2023-12-28T05:10:04;0.90;;;0.30;;
42420;SDS011;28063;48.140;11.588;2023-12-28T05:12:30;0.30;;;0.30;;
42420;SDS011;28063;48.140;11.588;2023-12-28T05:14:57;0.73;;;0.47;;
42420;SDS011;28063;48.140;11.588;2023-12-28T05:17:23;0.30;;;0.25;;
42420;SDS011;28063;48.140;11.588;2023-12-28T05:19:49;0.68;;;0.60;;
42420;SDS011;28063;48.140;11.588;2023-12-28T05:22:15;0.43;;;0.43;;
42420;SDS011;28063;48.140;11.588;2023-12-28T05:24:41;0.30;;;0.30;;
42420;SDS011;28063;48.140;11.588;2023-12-28T05:27:07;0.32;;;0.20;;
42420;SDS011;28063;48.140;11.588;2023-12-28T05:29:33;0.43;;;0.30;;
42420;SDS011;28063;48.140;11.588;2023-12-28T05:32:00;0.43;;;0.30;;
42420;SDS011;28063;48.140;11.588;2023-12-28T05:34:26;0.50;;;0.40;;
42420;SDS011;28063;48.140;11.588;2023-12-28T05:36:52;0.30;;;0.30;;
42420;SDS011;28063;48.140;11.588;2023-12-28T05:39:18;0.38;;;0.38;;
42420;SDS011;28063;48.140;11.588;2023-12-28T05:41:44;0.20;;;0.20;;
42420;SDS011;28063;48.140;11.588;2023-12-28T05:44:12;0.38;;;0.30;;
42420;SDS011;28063;48.140;11.588;2023-12-28T05:46:39;0.40;;;0.40;;
42420;SDS011;28063;48.140;11.588;2023-12-28T05:49:05;0.30;;;0.28;;
42420;SDS011;28063;48.140;11.588;2023-12-28T05:51:38;0.50;;;0.28;;
42420;SDS011;28063;48.140;11.588;2023-12-28T05:54:08;0.45;;;0.28;;
42420;SDS011;28063;48.140;11.588;2023-12-28T05:56:34;0.28;;;0.25;;
42420;SDS011;28063;48.140;11.588;2023-12-28T05:59:00;0.55;;;0.32;;
42420;SDS011;28063;48.140;11.588;2023-12-28T06:01:27;0.57;;;0.40;;
42420;SDS011;28063;48.140;11.588;2023-12-28T06:03:53;0.55;;;0.35;;
42420;SDS011;28063;48.140;11.588;2023-12-28T06:06:19;0.38;;;0.38;;
42420;SDS011;28063;48.140;11.588;2023-12-28T06:08:46;0.40;;;0.40;;
42420;SDS011;28063;48.140;11.588;2023-12-28T06:11:12;0.40;;;0.40;;
42420;SDS011;28063;48.140;11.588;2023-12-28T06:13:38;0.60;;;0.40;;
42420;SDS011;28063;48.140;11.588;2023-12-28T06:16:04;0.50;;;0.47;;
42420;SDS011;28063;48.140;11.588;2023-12-28T06:18:31;0.40;;;0.40;;
42420;SDS011;28063;48.140;11.588;2023-12-28T06:20:57;0.88;;;0.40;;
42420;SDS011;28063;48.140;11.588;2023-12-28T06:23:23;1.00;;;0.60;;
42420;SDS011;28063;48.140;11.588;2023-12-28T06:25:49;0.57;;;0.40;;
42420;SDS011;28063;48.140;11.588;2023-12-28T06:28:15;0.50;;;0.30;;
42420;SDS011;28063;48.140;11.588;2023-12-28T06:30:46;0.50;;;0.32;;
42420;SDS011;28063;48.140;11.588;2023-12-28T06:33:12;0.47;;;0.32;;
42420;SDS011;28063;48.140;11.588;2023-12-28T06:35:41;0.20;;;0.20;;
42420;SDS011;28063;48.140;11.588;2023-12-28T06:38:07;0.20;;;0.20;;
42420;SDS011;28063;48.140;11.588;2023-12-28T06:40:34;0.95;;;0.70;;
42420;SDS011;28063;48.140;11.588;2023-12-28T06:43:00;0.57;;;0.30;;
42420;SDS011;28063;48.140;11.588;2023-12-28T06:45:26;0.43;;;0.38;;
42420;SDS011;28063;48.140;11.588;2023-12-28T06:47:53;0.32;;;0.28;;
42420;SDS011;28063;48.140;11.588;2023-12-28T06:50:19;0.63;;;0.40;;
42420;SDS011;28063;48.140;11.588;2023-12-28T06:52:45;0.35;;;0.35;;
42420;SDS011;28063;48.140;11.588;2023-12-28T06:55:11;0.30;;;0.30;;
42420;SDS011;28063;48.140;11.588;2023-12-28T06:57:37;0.80;;;0.45;;
42420;SDS011;28063;48.140;11.588;2023-12-28T07:00:03;0.68;;;0.30;;
42420;SDS011;28063;48.140;11.588;2023-12-28T07:02:30;0.30;;;0.30;;
42420;SDS011;28063;48.140;11.588;2023-12-28T07:04:58;0.20;;;0.20;;
42420;SDS011;28063;48.140;11.588;2023-12-28T07:07:25;0.32;;;0.30;;
42420;SDS011;28063;48.140;11.588;2023-12-28T07:09:51;0.43;;;0.40;;
42420;SDS011;28063;48.140;11.588;2023-12-28T07:12:17;0.30;;;0.30;;
42420;SDS011;28063;48.140;11.588;2023-12-28T07:14:45;0.70;;;0.50;;
42420;SDS011;28063;48.140;11.588;2023-12-28T07:17:11;0.40;;;0.30;;
42420;SDS011;28063;48.140;11.588;2023-12-28T07:19:42;0.28;;;0.28;;
42420;SDS011;28063;48.140;11.588;2023-12-28T07:22:08;0.57;;;0.38;;
42420;SDS011;28063;48.140;11.588;2023-12-28T07:24:34;0.50;;;0.30;;
42420;SDS011;28063;48.140;11.588;2023-12-28T07:27:00;0.40;;;0.30;;
42420;SDS011;28063;48.140;11.588;2023-12-28T07:29:26;0.75;;;0.30;;
42420;SDS011;28063;48.140;11.588;2023-12-28T07:31:53;0.35;;;0.35;;
42420;SDS011;28063;48.140;11.588;2023-12-28T07:34:19;0.40;;;0.40;;
42420;SDS011;28063;48.140;11.588;2023-12-28T07:36:48;0.50;;;0.30;;
42420;SDS011;28063;48.140;11.588;2023-12-28T07:39:14;0.52;;;0.40;;
42420;SDS011;28063;48.140;11.588;2023-12-28T07:41:40;0.32;;;0.30;;
42420;SDS011;28063;48.140;11.588;2023-12-28T07:44:06;0.30;;;0.30;;
42420;SDS011;28063;48.140;11.588;2023-12-28T07:46:32;0.75;;;0.50;;
42420;SDS011;28063;48.140;11.588;2023-12-28T07:48:59;0.50;;;0.50;;
42420;SDS011;28063;48.140;11.588;2023-12-28T07:51:25;0.65;;;0.45;;
42420;SDS011;28063;48.140;11.588;2023-12-28T07:53:51;0.40;;;0.32;;
42420;SDS011;28063;48.140;11.588;2023-12-28T07:56:20;0.63;;;0.30;;
42420;SDS011;28063;48.140;11.588;2023-12-28T07:58:46;0.43;;;0.30;;
42420;SDS011;28063;48.140;11.588;2023-12-28T08:01:12;0.30;;;0.30;;
42420;SDS011;28063;48.140;11.588;2023-12-28T08:03:38;0.22;;;0.20;;
42420;SDS011;28063;48.140;11.588;2023-12-28T08:06:04;0.50;;;0.40;;
42420;SDS011;28063;48.140;11.588;2023-12-28T08:08:31;0.40;;;0.40;;
42420;SDS011;28063;48.140;11.588;2023-12-28T08:10:58;0.47;;;0.38;;
42420;SDS011;28063;48.140;11.588;2023-12-28T08:13:24;0.55;;;0.30;;
42420;SDS011;28063;48.140;11.588;2023-12-28T08:15:50;0.25;;;0.20;;
42420;SDS011;28063;48.140;11.588;2023-12-28T08:18:16;0.45;;;0.20;;
42420;SDS011;28063;48.140;11.588;2023-12-28T08:20:42;0.73;;;0.70;;
42420;SDS011;28063;48.140;11.588;2023-12-28T08:23:08;0.32;;;0.20;;
42420;SDS011;28063;48.140;11.588;2023-12-28T08:25:34;0.40;;;0.40;;
42420;SDS011;28063;48.140;11.588;2023-12-28T08:28:00;0.50;;;0.30;;
42420;SDS011;28063;48.140;11.588;2023-12-28T08:30:26;0.50;;;0.47;;
42420;SDS011;28063;48.140;11.588;2023-12-28T08:32:52;0.20;;;0.20;;
42420;SDS011;28063;48.140;11.588;2023-12-28T08:35:19;0.40;;;0.40;;
42420;SDS011;28063;48.140;11.588;2023-12-28T08:37:45;0.65;;;0.22;;
42420;SDS011;28063;48.140;11.588;2023-12-28T08:40:11;0.35;;;0.20;;
42420;SDS011;28063;48.140;11.588;2023-12-28T08:42:37;0.30;;;0.30;;
42420;SDS011;28063;48.140;11.588;2023-12-28T08:45:04;0.28;;;0.28;;
42420;SDS011;28063;48.140;11.588;2023-12-28T08:47:30;0.10;;;0.10;;
42420;SDS011;28063;48.140;11.588;2023-12-28T08:49:56;0.30;;;0.22;;
42420;SDS011;28063;48.140;11.588;2023-12-28T08:52:22;0.60;;;0.25;;
42420;SDS011;28063;48.140;11.588;2023-12-28T08:54:48;1.95;;;0.50;;
42420;SDS011;28063;48.140;11.588;2023-12-28T08:57:14;0.30;;;0.30;;
42420;SDS011;28063;48.140;11.588;2023-12-28T08:59:41;0.40;;;0.40;;
42420;SDS011;28063;48.140;11.588;2023-12-28T09:02:07;0.30;;;0.30;;
42420;SDS011;28063;48.140;11.588;2023-12-28T09:04:33;0.60;;;0.50;;
42420;SDS011;28063;48.140;11.588;2023-12-28T09:06:59;0.52;;;0.40;;
42420;SDS011;28063;48.140;11.588;2023-12-28T09:09:26;0.63;;;0.50;;
42420;SDS011;28063;48.140;11.588;2023-12-28T09:11:52;0.52;;;0.35;;
42420;SDS011;28063;48.140;11.588;2023-12-28T09:14:18;0.30;;;0.30;;
42420;SDS011;28063;48.140;11.588;2023-12-28T09:16:46;0.65;;;0.30;;
42420;SDS011;28063;48.140;11.588;2023-12-28T09:19:12;0.50;;;0.30;;
42420;SDS011;28063;48.140;11.588;2023-12-28T09:21:39;0.30;;;0.30;;
42420;SDS011;28063;48.140;11.588;2023-12-28T09:24:06;0.47;;;0.43;;
42420;SDS011;28063;48.140;11.588;2023-12-28T09:26:33;0.80;;;0.47;;
42420;SDS011;28063;48.140;11.588;2023-12-28T09:28:59;1.45;;;0.50;;
42420;SDS011;28063;48.140;11.588;2023-12-28T09:31:25;0.40;;;0.28;;
42420;SDS011;28063;48.140;11.588;2023-12-28T09:33:51;0.98;;;0.50;;
42420;SDS011;28063;48.140;11.588;2023-12-28T09:36:17;0.88;;;0.45;;
42420;SDS011;28063;48.140;11.588;2023-12-28T09:38:44;0.40;;;0.40;;
42420;SDS011;28063;48.140;11.588;2023-12-28T09:41:14;0.40;;;0.40;;
42420;SDS011;28063;48.140;11.588;2023-12-28T09:44:09;1.15;;;0.40;;
42420;SDS011;28063;48.140;11.588;2023-12-28T09:46:29;0.65;;;0.60;;
42420;SDS011;28063;48.140;11.588;2023-12-28T09:48:56;0.60;;;0.50;;
42420;SDS011;28063;48.140;11.588;2023-12-28T09:51:23;0.52;;;0.52;;
42420;SDS011;28063;48.140;11.588;2023-12-28T09:53:50;0.85;;;0.75;;
42420;SDS011;28063;48.140;11.588;2023-12-28T09:56:16;0.50;;;0.50;;
42420;SDS011;28063;48.140;11.588;2023-12-28T09:58:43;0.77;;;0.50;;
42420;SDS011;28063;48.140;11.588;2023-12-28T10:01:10;0.82;;;0.60;;
42420;SDS011;28063;48.140;11.588;2023-12-28T10:03:36;0.90;;;0.80;;
42420;SDS011;28063;48.140;11.588;2023-12-28T10:06:02;0.50;;;0.47;;
42420;SDS011;28063;48.140;11.588;2023-12-28T10:08:28;0.45;;;0.45;;
42420;SDS011;28063;48.140;11.588;2023-12-28T10:10:54;0.60;;;0.60;;
42420;SDS011;28063;48.140;11.588;2023-12-28T10:13:24;0.73;;;0.50;;
42420;SDS011;28063;48.140;11.588;2023-12-28T10:15:50;1.05;;;0.70;;
42420;SDS011;28063;48.140;11.588;2023-12-28T10:18:17;0.60;;;0.60;;
42420;SDS011;28063;48.140;11.588;2023-12-28T10:20:48;0.50;;;0.50;;
42420;SDS011;28063;48.140;11.588;2023-12-28T10:23:15;0.75;;;0.50;;
42420;SDS011;28063;48.140;11.588;2023-12-28T10:25:42;0.55;;;0.47;;
42420;SDS011;28063;48.140;11.588;2023-12-28T10:28:08;0.65;;;0.65;;
42420;SDS011;28063;48.140;11.588;2023-12-28T10:30:37;1.40;;;0.47;;
42420;SDS011;28063;48.140;11.588;2023-12-28T10:33:05;0.65;;;0.57;;
42420;SDS011;28063;48.140;11.588;2023-12-28T10:35:31;0.50;;;0.45;;
42420;SDS011;28063;48.140;11.588;2023-12-28T10:37:59;0.55;;;0.50;;
42420;SDS011;28063;48.140;11.588;2023-12-28T10:40:25;0.43;;;0.38;;
42420;SDS011;28063;48.140;11.588;2023-12-28T10:42:54;0.90;;;0.43;;
42420;SDS011;28063;48.140;11.588;2023-12-28T10:45:21;0.32;;;0.30;;
42420;SDS011;28063;48.140;11.588;2023-12-28T10:47:54;0.40;;;0.40;;
42420;SDS011;28063;48.140;11.588;2023-12-28T10:50:23;0.73;;;0.40;;
42420;SDS011;28063;48.140;11.588;2023-12-28T10:52:53;1.27;;;0.60;;
42420;SDS011;28063;48.140;11.588;2023-12-28T10:55:40;0.60;;;0.43;;
42420;SDS011;28063;48.140;11.588;2023-12-28T11:00:38;0.57;;;0.40;;
42420;SDS011;28063;48.140;11.588;2023-12-28T11:03:06;0.40;;;0.40;;
42420;SDS011;28063;48.140;11.588;2023-12-28T11:05:34;0.60;;;0.40;;
42420;SDS011;28063;48.140;11.588;2023-12-28T11:08:01;0.43;;;0.40;;
42420;SDS011;28063;48.140;11.588;2023-12-28T11:10:28;0.65;;;0.52;;
42420;SDS011;28063;48.140;11.588;2023-12-28T11:12:56;1.65;;;0.55;;
42420;SDS011;28063;48.140;11.588;2023-12-28T11:15:22;0.75;;;0.40;;
42420;SDS011;28063;48.140;11.588;2023-12-28T11:17:49;0.50;;;0.50;;
42420;SDS011;28063;48.140;11.588;2023-12-28T11:20:15;0.73;;;0.50;;
42420;SDS011;28063;48.140;11.588;2023-12-28T11:22:42;0.55;;;0.40;;
42420;SDS011;28063;48.140;11.588;2023-12-28T11:25:15;0.85;;;0.50;;
42420;SDS011;28063;48.140;11.588;2023-12-28T11:27:41;0.77;;;0.50;;
42420;SDS011;28063;48.140;11.588;2023-12-28T11:30:09;0.88;;;0.80;;
42420;SDS011;28063;48.140;11.588;2023-12-28T11:32:36;0.57;;;0.57;;
42420;SDS011;28063;48.140;11.588;2023-12-28T11:35:02;1.20;;;0.88;;
42420;SDS011;28063;48.140;11.588;2023-12-28T11:37:35;1.20;;;0.77;;
42420;SDS011;28063;48.140;11.588;2023-12-28T11:40:16;0.77;;;0.60;;
42420;SDS011;28063;48.140;11.588;2023-12-28T11:42:50;0.80;;;0.60;;
42420;SDS011;28063;48.140;11.588;2023-12-28T11:45:17;0.80;;;0.70;;
42420;SDS011;28063;48.140;11.588;2023-12-28T11:47:43;0.80;;;0.80;;
42420;SDS011;28063;48.140;11.588;2023-12-28T11:50:10;0.65;;;0.50;;
42420;SDS011;28063;48.140;11.588;2023-12-28T11:52:37;1.02;;;0.80;;
42420;SDS011;28063;48.140;11.588;2023-12-28T11:55:03;0.93;;;0.77;;
42420;SDS011;28063;48.140;11.588;2023-12-28T11:57:29;0.93;;;0.68;;
42420;SDS011;28063;48.140;11.588;2023-12-28T11:59:57;0.50;;;0.50;;
42420;SDS011;28063;48.140;11.588;2023-12-28T12:02:23;0.52;;;0.52;;
42420;SDS011;28063;48.140;11.588;2023-12-28T12:04:49;0.80;;;0.70;;
42420;SDS011;28063;48.140;11.588;2023-12-28T12:07:16;0.95;;;0.60;;
42420;SDS011;28063;48.140;11.588;2023-12-28T12:09:42;0.47;;;0.40;;
42420;SDS011;28063;48.140;11.588;2023-12-28T12:12:09;0.30;;;0.30;;
42420;SDS011;28063;48.140;11.588;2023-12-28T12:14:35;0.57;;;0.57;;
42420;SDS011;28063;48.140;11.588;2023-12-28T12:17:01;1.00;;;0.60;;
42420;SDS011;28063;48.140;11.588;2023-12-28T12:19:28;0.80;;;0.80;;
42420;SDS011;28063;48.140;11.588;2023-12-28T12:21:55;0.90;;;0.80;;
42420;SDS011;28063;48.140;11.588;2023-12-28T12:24:22;0.68;;;0.60;;
42420;SDS011;28063;48.140;11.588;2023-12-28T12:26:51;0.77;;;0.77;;
42420;SDS011;28063;48.140;11.588;2023-12-28T12:29:18;0.70;;;0.68;;
42420;SDS011;28063;48.140;11.588;2023-12-28T12:31:44;1.38;;;0.90;;
42420;SDS011;28063;48.140;11.588;2023-12-28T12:34:14;0.70;;;0.63;;
42420;SDS011;28063;48.140;11.588;2023-12-28T12:36:41;0.75;;;0.60;;
42420;SDS011;28063;48.140;11.588;2023-12-28T12:39:07;1.02;;;0.77;;
42420;SDS011;28063;48.140;11.588;2023-12-28T12:41:36;1.42;;;0.73;;
42420;SDS011;28063;48.140;11.588;2023-12-28T12:44:05;0.88;;;0.80;;
42420;SDS011;28063;48.140;11.588;2023-12-28T12:46:31;1.38;;;1.00;;
42420;SDS011;28063;48.140;11.588;2023-12-28T12:48:58;1.13;;;0.90;;
42420;SDS011;28063;48.140;11.588;2023-12-28T12:51:25;1.35;;;1.20;;
42420;SDS011;28063;48.140;11.588;2023-12-28T12:54:01;1.67;;;0.98;;
42420;SDS011;28063;48.140;11.588;2023-12-28T12:56:28;1.10;;;0.93;;
42420;SDS011;28063;48.140;11.588;2023-12-28T12:58:55;1.80;;;1.20;;
42420;SDS011;28063;48.140;11.588;2023-12-28T13:01:21;1.27;;;0.88;;
42420;SDS011;28063;48.140;11.588;2023-12-28T13:03:47;0.70;;;0.70;;
42420;SDS011;28063;48.140;11.588;2023-12-28T13:06:14;1.33;;;1.00;;
42420;SDS011;28063;48.140;11.588;2023-12-28T13:08:40;1.65;;;0.80;;
42420;SDS011;28063;48.140;11.588;2023-12-28T13:11:06;1.35;;;0.70;;
42420;SDS011;28063;48.140;11.588;2023-12-28T13:13:32;1.65;;;1.00;;
42420;SDS011;28063;48.140;11.588;2023-12-28T13:15:58;1.73;;;1.00;;
42420;SDS011;28063;48.140;11.588;2023-12-28T13:18:24;1.77;;;1.10;;
42420;SDS011;28063;48.140;11.588;2023-12-28T13:20:51;1.20;;;0.70;;
42420;SDS011;28063;48.140;11.588;2023-12-28T13:23:17;1.90;;;0.98;;
42420;SDS011;28063;48.140;11.588;2023-12-28T13:25:43;1.17;;;0.80;;
42420;SDS011;28063;48.140;11.588;2023-12-28T13:28:09;2.38;;;1.10;;
42420;SDS011;28063;48.140;11.588;2023-12-28T13:30:35;1.50;;;1.27;;
42420;SDS011;28063;48.140;11.588;2023-12-28T13:33:05;1.27;;;0.90;;
42420;SDS011;28063;48.140;11.588;2023-12-28T13:35:32;1.33;;;0.93;;
42420;SDS011;28063;48.140;11.588;2023-12-28T13:38:01;1.52;;;0.95;;
42420;SDS011;28063;48.140;11.588;2023-12-28T13:40:27;1.60;;;1.02;;
42420;SDS011;28063;48.140;11.588;2023-12-28T13:42:54;1.17;;;1.08;;
42420;SDS011;28063;48.140;11.588;2023-12-28T13:45:20;1.13;;;1.02;;
42420;SDS011;28063;48.140;11.588;2023-12-28T13:47:46;1.70;;;1.23;;
42420;SDS011;28063;48.140;11.588;2023-12-28T13:50:12;1.02;;;0.85;;
42420;SDS011;28063;48.140;11.588;2023-12-28T13:52:38;1.05;;;0.90;;
42420;SDS011;28063;48.140;11.588;2023-12-28T13:55:04;1.88;;;1.00;;
42420;SDS011;28063;48.140;11.588;2023-12-28T13:57:30;1.25;;;0.80;;
42420;SDS011;28063;48.140;11.588;2023-12-28T13:59:57;1.15;;;1.05;;
42420;SDS011;28063;48.140;11.588;2023-12-28T14:02:25;1.23;;;0.90;;
42420;SDS011;28063;48.140;11.588;2023-12-28T14:04:52;1.55;;;0.70;;
42420;SDS011;28063;48.140;11.588;2023-12-28T14:07:21;1.25;;;0.70;;
42420;SDS011;28063;48.140;11.588;2023-12-28T14:09:47;0.82;;;0.60;;
42420;SDS011;28063;48.140;11.588;2023-12-28T14:12:13;0.80;;;0.60;;
42420;SDS011;28063;48.140;11.588;2023-12-28T14:14:39;0.60;;;0.60;;
42420;SDS011;28063;48.140;11.588;2023-12-28T14:17:05;4.18;;;1.50;;
42420;SDS011;28063;48.140;11.588;2023-12-28T14:19:31;1.38;;;1.15;;
42420;SDS011;28063;48.140;11.588;2023-12-28T14:21:57;1.67;;;1.35;;
42420;SDS011;28063;48.140;11.588;2023-12-28T14:24:24;2.20;;;1.30;;
42420;SDS011;28063;48.140;11.588;2023-12-28T14:26:51;1.75;;;1.10;;
42420;SDS011;28063;48.140;11.588;2023-12-28T14:29:19;2.63;;;1.52;;
42420;SDS011;28063;48.140;11.588;2023-12-28T14:31:45;1.50;;;1.20;;
42420;SDS011;28063;48.140;11.588;2023-12-28T14:34:12;1.23;;;0.93;;